sensor_id;sensor_type;location;lat;lon;timestamp;P1;durP1;ratioP1;P2;durP2;ratioP2
19816;SDS011;68323;49.394;8.434;2023-12-20T00:00:00;11.53;;;8.00;;
19816;SDS011;68323;49.394;8.434;2023-12-20T00:02:25;13.33;;;8.67;;
19816;SDS011;68323;49.394;8.434;2023-12-20T00:04:51;14.53;;;9.43;;
19816;SDS011;68323;49.394;8.434;2023-12-20T00:07:20;12.33;;;7.87;;
19816;SDS011;68323;49.394;8.434;2023-12-20T00:09:45;10.93;;;7.03;;
19816;SDS011;68323;49.394;8.434;2023-12-20T00:12:11;10.57;;;7.13;;
19816;SDS011;68323;49.394;8.434;2023-12-20T00:14:39;11.63;;;7.70;;
19816;SDS011;68323;49.394;8.434;2023-12-20T00:17:08;11.33;;;7.50;;
19816;SDS011;68323;49.394;8.434;2023-12-20T00:19:33;14.60;;;10.40;;
19816;SDS011;68323;49.394;8.434;2023-12-20T00:22:01;17.93;;;12.10;;
19816;SDS011;68323;49.394;8.434;2023-12-20T00:24:27;12.97;;;8.60;;
19816;SDS011;68323;49.394;8.434;2023-12-20T00:26:53;14.80;;;8.87;;
19816;SDS011;68323;49.394;8.434;2023-12-20T00:29:21;9.43;;;7.00;;
19816;SDS011;68323;49.394;8.434;2023-12-20T00:31:49;10.70;;;7.37;;
19816;SDS011;68323;49.394;8.434;2023-12-20T00:34:15;9.80;;;6.93;;
19816;SDS011;68323;49.394;8.434;2023-12-20T00:36:40;12.87;;;9.50;;
19816;SDS011;68323;49.394;8.434;2023-12-20T00:39:09;9.63;;;6.70;;
19816;SDS011;68323;49.394;8.434;2023-12-20T00:41:34;14.93;;;11.03;;
19816;SDS011;68323;49.394;8.434;2023-12-20T00:44:00;11.93;;;7.73;;
19816;SDS011;68323;49.394;8.434;2023-12-20T00:46:28;13.67;;;8.93;;
19816;SDS011;68323;49.394;8.434;2023-12-20T00:48:54;10.63;;;7.47;;
19816;SDS011;68323;49.394;8.434;2023-12-20T00:51:19;11.13;;;7.90;;
19816;SDS011;68323;49.394;8.434;2023-12-20T00:53:45;32.17;;;20.77;;
19816;SDS011;68323;49.394;8.434;2023-12-20T00:56:17;16.03;;;9.37;;
19816;SDS011;68323;49.394;8.434;2023-12-20T00:58:43;26.80;;;17.23;;
19816;SDS011;68323;49.394;8.434;2023-12-20T01:01:11;14.20;;;9.43;;
19816;SDS011;68323;49.394;8.434;2023-12-20T01:03:38;20.57;;;13.77;;
19816;SDS011;68323;49.394;8.434;2023-12-20T01:06:04;17.83;;;11.00;;
19816;SDS011;68323;49.394;8.434;2023-12-20T01:08:30;16.07;;;10.27;;
19816;SDS011;68323;49.394;8.434;2023-12-20T01:11:05;19.17;;;13.90;;
19816;SDS011;68323;49.394;8.434;2023-12-20T01:13:31;18.83;;;13.60;;
19816;SDS011;68323;49.394;8.434;2023-12-20T01:15:59;16.63;;;12.33;;
19816;SDS011;68323;49.394;8.434;2023-12-20T01:18:25;15.30;;;11.03;;
19816;SDS011;68323;49.394;8.434;2023-12-20T01:20:50;15.80;;;8.73;;
19816;SDS011;68323;49.394;8.434;2023-12-20T01:23:16;11.23;;;7.50;;
19816;SDS011;68323;49.394;8.434;2023-12-20T01:25:47;12.33;;;7.70;;
19816;SDS011;68323;49.394;8.434;2023-12-20T01:28:13;12.50;;;8.00;;
19816;SDS011;68323;49.394;8.434;2023-12-20T01:30:39;10.43;;;6.90;;
19816;SDS011;68323;49.394;8.434;2023-12-20T01:33:05;9.83;;;6.70;;
19816;SDS011;68323;49.394;8.434;2023-12-20T01:35:32;11.23;;;6.73;;
19816;SDS011;68323;49.394;8.434;2023-12-20T01:38:00;10.83;;;7.00;;
19816;SDS011;68323;49.394;8.434;2023-12-20T01:40:26;11.23;;;7.57;;
19816;SDS011;68323;49.394;8.434;2023-12-20T01:42:58;12.67;;;7.90;;
19816;SDS011;68323;49.394;8.434;2023-12-20T01:45:25;16.13;;;8.00;;
19816;SDS011;68323;49.394;8.434;2023-12-20T01:47:59;13.53;;;8.50;;
19816;SDS011;68323;49.394;8.434;2023-12-20T01:50:28;15.27;;;8.87;;
19816;SDS011;68323;49.394;8.434;2023-12-20T01:52:54;14.33;;;9.20;;
19816;SDS011;68323;49.394;8.434;2023-12-20T01:55:25;15.47;;;9.67;;
19816;SDS011;68323;49.394;8.434;2023-12-20T01:57:52;16.63;;;10.20;;
19816;SDS011;68323;49.394;8.434;2023-12-20T02:00:18;16.80;;;10.03;;
19816;SDS011;68323;49.394;8.434;2023-12-20T02:02:49;13.27;;;9.10;;
19816;SDS011;68323;49.394;8.434;2023-12-20T02:05:17;15.43;;;8.67;;
19816;SDS011;68323;49.394;8.434;2023-12-20T02:07:43;15.40;;;8.50;;
19816;SDS011;68323;49.394;8.434;2023-12-20T02:10:12;14.30;;;8.87;;
19816;SDS011;68323;49.394;8.434;2023-12-20T02:12:38;14.33;;;8.80;;
19816;SDS011;68323;49.394;8.434;2023-12-20T02:15:03;13.57;;;8.97;;
19816;SDS011;68323;49.394;8.434;2023-12-20T02:17:32;16.73;;;9.27;;
19816;SDS011;68323;49.394;8.434;2023-12-20T02:20:01;15.50;;;9.83;;
19816;SDS011;68323;49.394;8.434;2023-12-20T02:22:30;15.63;;;9.43;;
19816;SDS011;68323;49.394;8.434;2023-12-20T02:24:55;14.70;;;9.33;;
19816;SDS011;68323;49.394;8.434;2023-12-20T02:27:21;14.80;;;9.03;;
19816;SDS011;68323;49.394;8.434;2023-12-20T02:29:53;16.97;;;9.23;;
19816;SDS011;68323;49.394;8.434;2023-12-20T02:32:21;14.37;;;8.57;;
19816;SDS011;68323;49.394;8.434;2023-12-20T02:34:48;13.53;;;8.50;;
19816;SDS011;68323;49.394;8.434;2023-12-20T02:37:14;13.67;;;8.33;;
19816;SDS011;68323;49.394;8.434;2023-12-20T02:39:40;12.53;;;8.27;;
19816;SDS011;68323;49.394;8.434;2023-12-20T02:42:05;13.47;;;7.93;;
19816;SDS011;68323;49.394;8.434;2023-12-20T02:44:31;14.13;;;8.33;;
19816;SDS011;68323;49.394;8.434;2023-12-20T02:46:57;13.27;;;8.00;;
19816;SDS011;68323;49.394;8.434;2023-12-20T02:49:22;12.87;;;8.10;;
19816;SDS011;68323;49.394;8.434;2023-12-20T02:51:48;13.80;;;8.60;;
19816;SDS011;68323;49.394;8.434;2023-12-20T02:54:16;13.83;;;8.33;;
19816;SDS011;68323;49.394;8.434;2023-12-20T02:56:42;12.00;;;7.63;;
19816;SDS011;68323;49.394;8.434;2023-12-20T02:59:08;11.40;;;7.30;;
19816;SDS011;68323;49.394;8.434;2023-12-20T03:01:34;11.70;;;7.00;;
19816;SDS011;68323;49.394;8.434;2023-12-20T03:04:00;10.93;;;6.33;;
19816;SDS011;68323;49.394;8.434;2023-12-20T03:06:26;9.80;;;6.13;;
19816;SDS011;68323;49.394;8.434;2023-12-20T03:08:55;9.20;;;5.77;;
19816;SDS011;68323;49.394;8.434;2023-12-20T03:11:20;9.57;;;5.70;;
19816;SDS011;68323;49.394;8.434;2023-12-20T03:13:51;8.90;;;5.80;;
19816;SDS011;68323;49.394;8.434;2023-12-20T03:16:17;7.83;;;5.23;;
19816;SDS011;68323;49.394;8.434;2023-12-20T03:18:43;7.20;;;4.93;;
19816;SDS011;68323;49.394;8.434;2023-12-20T03:21:08;7.30;;;4.80;;
19816;SDS011;68323;49.394;8.434;2023-12-20T03:23:34;6.60;;;4.40;;
19816;SDS011;68323;49.394;8.434;2023-12-20T03:26:00;5.37;;;3.77;;
19816;SDS011;68323;49.394;8.434;2023-12-20T03:28:26;4.73;;;3.33;;
19816;SDS011;68323;49.394;8.434;2023-12-20T03:30:57;4.37;;;3.17;;
19816;SDS011;68323;49.394;8.434;2023-12-20T03:33:23;4.67;;;3.27;;
19816;SDS011;68323;49.394;8.434;2023-12-20T03:35:49;4.80;;;3.50;;
19816;SDS011;68323;49.394;8.434;2023-12-20T03:38:14;4.13;;;3.00;;
19816;SDS011;68323;49.394;8.434;2023-12-20T03:40:43;6.37;;;3.20;;
19816;SDS011;68323;49.394;8.434;2023-12-20T03:43:09;4.50;;;2.87;;
19816;SDS011;68323;49.394;8.434;2023-12-20T03:45:34;5.00;;;2.47;;
19816;SDS011;68323;49.394;8.434;2023-12-20T03:48:00;3.17;;;2.30;;
19816;SDS011;68323;49.394;8.434;2023-12-20T03:50:26;2.47;;;1.90;;
19816;SDS011;68323;49.394;8.434;2023-12-20T03:52:52;1.97;;;1.63;;
19816;SDS011;68323;49.394;8.434;2023-12-20T03:55:20;2.93;;;1.93;;
19816;SDS011;68323;49.394;8.434;2023-12-20T03:57:48;1.97;;;1.70;;
19816;SDS011;68323;49.394;8.434;2023-12-20T04:00:14;2.23;;;1.70;;
19816;SDS011;68323;49.394;8.434;2023-12-20T04:02:40;2.60;;;1.70;;
19816;SDS011;68323;49.394;8.434;2023-12-20T04:05:09;2.60;;;1.30;;
19816;SDS011;68323;49.394;8.434;2023-12-20T04:07:35;1.53;;;1.30;;
19816;SDS011;68323;49.394;8.434;2023-12-20T04:10:04;3.33;;;1.60;;
19816;SDS011;68323;49.394;8.434;2023-12-20T04:12:30;1.80;;;1.30;;
19816;SDS011;68323;49.394;8.434;2023-12-20T04:14:58;2.53;;;1.30;;
19816;SDS011;68323;49.394;8.434;2023-12-20T04:17:24;1.77;;;1.40;;
19816;SDS011;68323;49.394;8.434;2023-12-20T04:19:50;2.43;;;1.40;;
19816;SDS011;68323;49.394;8.434;2023-12-20T04:22:19;1.90;;;1.50;;
19816;SDS011;68323;49.394;8.434;2023-12-20T04:24:45;3.83;;;1.77;;
19816;SDS011;68323;49.394;8.434;2023-12-20T04:27:13;2.03;;;1.30;;
19816;SDS011;68323;49.394;8.434;2023-12-20T04:29:39;2.10;;;1.60;;
19816;SDS011;68323;49.394;8.434;2023-12-20T04:32:05;2.47;;;1.90;;
19816;SDS011;68323;49.394;8.434;2023-12-20T04:34:31;2.10;;;1.80;;
19816;SDS011;68323;49.394;8.434;2023-12-20T04:36:59;2.80;;;2.20;;
19816;SDS011;68323;49.394;8.434;2023-12-20T04:39:28;3.10;;;2.37;;
19816;SDS011;68323;49.394;8.434;2023-12-20T04:41:54;3.60;;;2.30;;
19816;SDS011;68323;49.394;8.434;2023-12-20T04:44:19;2.10;;;1.87;;
19816;SDS011;68323;49.394;8.434;2023-12-20T04:46:47;2.97;;;2.20;;
19816;SDS011;68323;49.394;8.434;2023-12-20T04:49:13;2.70;;;2.07;;
19816;SDS011;68323;49.394;8.434;2023-12-20T04:51:39;2.97;;;2.20;;
19816;SDS011;68323;49.394;8.434;2023-12-20T04:54:04;3.30;;;2.10;;
19816;SDS011;68323;49.394;8.434;2023-12-20T04:56:30;3.63;;;2.60;;
19816;SDS011;68323;49.394;8.434;2023-12-20T04:58:58;4.77;;;4.23;;
19816;SDS011;68323;49.394;8.434;2023-12-20T05:01:23;4.27;;;3.60;;
19816;SDS011;68323;49.394;8.434;2023-12-20T05:03:52;6.50;;;5.20;;
19816;SDS011;68323;49.394;8.434;2023-12-20T05:06:20;3.60;;;3.30;;
19816;SDS011;68323;49.394;8.434;2023-12-20T05:08:46;3.97;;;3.30;;
19816;SDS011;68323;49.394;8.434;2023-12-20T05:11:12;2.90;;;2.33;;
19816;SDS011;68323;49.394;8.434;2023-12-20T05:13:40;5.00;;;3.83;;
19816;SDS011;68323;49.394;8.434;2023-12-20T05:16:08;8.23;;;6.00;;
19816;SDS011;68323;49.394;8.434;2023-12-20T05:18:34;13.80;;;9.93;;
19816;SDS011;68323;49.394;8.434;2023-12-20T05:21:03;8.93;;;6.10;;
19816;SDS011;68323;49.394;8.434;2023-12-20T05:23:29;8.43;;;6.60;;
19816;SDS011;68323;49.394;8.434;2023-12-20T05:25:54;5.40;;;4.60;;
19816;SDS011;68323;49.394;8.434;2023-12-20T05:28:23;7.43;;;5.27;;
19816;SDS011;68323;49.394;8.434;2023-12-20T05:30:48;7.03;;;5.40;;
19816;SDS011;68323;49.394;8.434;2023-12-20T05:33:14;8.40;;;6.10;;
19816;SDS011;68323;49.394;8.434;2023-12-20T05:35:40;5.67;;;4.50;;
19816;SDS011;68323;49.394;8.434;2023-12-20T05:38:05;15.60;;;11.17;;
19816;SDS011;68323;49.394;8.434;2023-12-20T05:40:31;13.67;;;10.17;;
19816;SDS011;68323;49.394;8.434;2023-12-20T05:43:03;8.13;;;5.93;;
19816;SDS011;68323;49.394;8.434;2023-12-20T05:45:31;6.10;;;4.27;;
19816;SDS011;68323;49.394;8.434;2023-12-20T05:47:59;4.47;;;3.40;;
19816;SDS011;68323;49.394;8.434;2023-12-20T05:50:25;4.77;;;4.17;;
19816;SDS011;68323;49.394;8.434;2023-12-20T05:52:53;3.83;;;3.20;;
19816;SDS011;68323;49.394;8.434;2023-12-20T05:55:19;4.10;;;3.30;;
19816;SDS011;68323;49.394;8.434;2023-12-20T05:57:44;4.10;;;3.07;;
19816;SDS011;68323;49.394;8.434;2023-12-20T06:00:19;4.77;;;3.50;;
19816;SDS011;68323;49.394;8.434;2023-12-20T06:02:48;4.33;;;3.13;;
19816;SDS011;68323;49.394;8.434;2023-12-20T06:05:13;3.63;;;3.00;;
19816;SDS011;68323;49.394;8.434;2023-12-20T06:07:51;3.93;;;3.40;;
19816;SDS011;68323;49.394;8.434;2023-12-20T06:10:17;3.77;;;3.17;;
19816;SDS011;68323;49.394;8.434;2023-12-20T06:12:43;4.20;;;3.13;;
19816;SDS011;68323;49.394;8.434;2023-12-20T06:15:08;4.60;;;3.20;;
19816;SDS011;68323;49.394;8.434;2023-12-20T06:17:34;4.50;;;3.77;;
19816;SDS011;68323;49.394;8.434;2023-12-20T06:20:03;65.60;;;27.90;;
19816;SDS011;68323;49.394;8.434;2023-12-20T06:22:35;9.03;;;5.53;;
19816;SDS011;68323;49.394;8.434;2023-12-20T06:25:01;5.30;;;4.10;;
19816;SDS011;68323;49.394;8.434;2023-12-20T06:27:28;4.70;;;3.70;;
19816;SDS011;68323;49.394;8.434;2023-12-20T06:29:53;28.07;;;13.60;;
19816;SDS011;68323;49.394;8.434;2023-12-20T06:32:22;25.33;;;12.37;;
19816;SDS011;68323;49.394;8.434;2023-12-20T06:34:48;32.60;;;15.40;;
19816;SDS011;68323;49.394;8.434;2023-12-20T06:37:14;9.27;;;5.73;;
19816;SDS011;68323;49.394;8.434;2023-12-20T06:39:40;6.13;;;4.50;;
19816;SDS011;68323;49.394;8.434;2023-12-20T06:42:06;5.53;;;4.13;;
19816;SDS011;68323;49.394;8.434;2023-12-20T06:44:34;8.20;;;5.00;;
19816;SDS011;68323;49.394;8.434;2023-12-20T06:46:59;5.83;;;4.60;;
19816;SDS011;68323;49.394;8.434;2023-12-20T06:49:27;6.67;;;4.50;;
19816;SDS011;68323;49.394;8.434;2023-12-20T06:51:53;5.90;;;4.40;;
19816;SDS011;68323;49.394;8.434;2023-12-20T06:54:22;5.93;;;3.60;;
19816;SDS011;68323;49.394;8.434;2023-12-20T06:56:47;8.83;;;3.63;;
19816;SDS011;68323;49.394;8.434;2023-12-20T06:59:13;5.73;;;3.67;;
19816;SDS011;68323;49.394;8.434;2023-12-20T07:01:38;6.03;;;3.73;;
19816;SDS011;68323;49.394;8.434;2023-12-20T07:04:04;6.43;;;3.53;;
19816;SDS011;68323;49.394;8.434;2023-12-20T07:06:30;6.90;;;4.97;;
19816;SDS011;68323;49.394;8.434;2023-12-20T07:08:55;7.20;;;5.00;;
19816;SDS011;68323;49.394;8.434;2023-12-20T07:11:21;7.67;;;5.07;;
19816;SDS011;68323;49.394;8.434;2023-12-20T07:13:47;5.93;;;4.67;;
19816;SDS011;68323;49.394;8.434;2023-12-20T07:16:12;8.23;;;6.47;;
19816;SDS011;68323;49.394;8.434;2023-12-20T07:18:38;9.10;;;7.13;;
19816;SDS011;68323;49.394;8.434;2023-12-20T07:21:04;12.00;;;7.27;;
19816;SDS011;68323;49.394;8.434;2023-12-20T07:23:35;9.57;;;6.27;;
19816;SDS011;68323;49.394;8.434;2023-12-20T07:26:00;12.37;;;8.83;;
19816;SDS011;68323;49.394;8.434;2023-12-20T07:28:26;37.03;;;22.07;;
19816;SDS011;68323;49.394;8.434;2023-12-20T07:30:52;65.00;;;36.40;;
19816;SDS011;68323;49.394;8.434;2023-12-20T07:33:20;60.10;;;32.67;;
19816;SDS011;68323;49.394;8.434;2023-12-20T07:35:46;50.10;;;30.03;;
19816;SDS011;68323;49.394;8.434;2023-12-20T07:38:12;14.43;;;10.40;;
19816;SDS011;68323;49.394;8.434;2023-12-20T07:40:37;8.10;;;6.20;;
19816;SDS011;68323;49.394;8.434;2023-12-20T07:43:04;8.83;;;6.27;;
19816;SDS011;68323;49.394;8.434;2023-12-20T07:45:29;9.00;;;5.87;;
19816;SDS011;68323;49.394;8.434;2023-12-20T07:47:55;8.03;;;5.60;;
19816;SDS011;68323;49.394;8.434;2023-12-20T07:50:21;7.60;;;6.00;;
19816;SDS011;68323;49.394;8.434;2023-12-20T07:52:46;10.23;;;7.87;;
19816;SDS011;68323;49.394;8.434;2023-12-20T07:55:13;10.40;;;6.70;;
19816;SDS011;68323;49.394;8.434;2023-12-20T07:57:39;8.00;;;6.20;;
19816;SDS011;68323;49.394;8.434;2023-12-20T08:00:05;7.83;;;5.37;;
19816;SDS011;68323;49.394;8.434;2023-12-20T08:02:31;8.17;;;5.80;;
19816;SDS011;68323;49.394;8.434;2023-12-20T08:04:56;7.60;;;4.23;;
19816;SDS011;68323;49.394;8.434;2023-12-20T08:07:25;5.50;;;3.33;;
19816;SDS011;68323;49.394;8.434;2023-12-20T08:09:51;8.13;;;3.20;;
19816;SDS011;68323;49.394;8.434;2023-12-20T08:12:17;4.67;;;2.03;;
19816;SDS011;68323;49.394;8.434;2023-12-20T08:14:43;2.50;;;1.37;;
19816;SDS011;68323;49.394;8.434;2023-12-20T08:17:08;4.17;;;1.60;;
19816;SDS011;68323;49.394;8.434;2023-12-20T08:19:34;6.93;;;1.43;;
19816;SDS011;68323;49.394;8.434;2023-12-20T08:22:02;4.33;;;1.60;;
19816;SDS011;68323;49.394;8.434;2023-12-20T08:24:29;4.47;;;1.70;;
19816;SDS011;68323;49.394;8.434;2023-12-20T08:26:57;6.30;;;2.03;;
19816;SDS011;68323;49.394;8.434;2023-12-20T08:29:25;5.27;;;2.10;;
19816;SDS011;68323;49.394;8.434;2023-12-20T08:31:54;7.60;;;3.33;;
19816;SDS011;68323;49.394;8.434;2023-12-20T08:34:20;8.27;;;4.20;;
19816;SDS011;68323;49.394;8.434;2023-12-20T08:36:46;6.80;;;4.57;;
19816;SDS011;68323;49.394;8.434;2023-12-20T08:39:12;14.53;;;10.37;;
19816;SDS011;68323;49.394;8.434;2023-12-20T08:41:40;15.67;;;10.77;;
19816;SDS011;68323;49.394;8.434;2023-12-20T08:44:05;14.13;;;8.50;;
19816;SDS011;68323;49.394;8.434;2023-12-20T08:46:32;13.80;;;8.00;;
19816;SDS011;68323;49.394;8.434;2023-12-20T08:48:57;16.40;;;9.90;;
19816;SDS011;68323;49.394;8.434;2023-12-20T08:51:23;10.13;;;5.60;;
19816;SDS011;68323;49.394;8.434;2023-12-20T08:53:50;11.00;;;6.60;;
19816;SDS011;68323;49.394;8.434;2023-12-20T08:56:19;5.77;;;3.60;;
19816;SDS011;68323;49.394;8.434;2023-12-20T08:58:48;4.93;;;2.90;;
19816;SDS011;68323;49.394;8.434;2023-12-20T09:01:14;4.97;;;3.00;;
19816;SDS011;68323;49.394;8.434;2023-12-20T09:03:47;5.17;;;2.50;;
19816;SDS011;68323;49.394;8.434;2023-12-20T09:06:13;4.80;;;1.97;;
19816;SDS011;68323;49.394;8.434;2023-12-20T09:08:38;4.80;;;2.20;;
19816;SDS011;68323;49.394;8.434;2023-12-20T09:11:04;3.97;;;1.80;;
19816;SDS011;68323;49.394;8.434;2023-12-20T09:13:30;5.13;;;2.00;;
19816;SDS011;68323;49.394;8.434;2023-12-20T09:15:56;5.30;;;1.90;;
19816;SDS011;68323;49.394;8.434;2023-12-20T09:18:25;6.93;;;2.00;;
19816;SDS011;68323;49.394;8.434;2023-12-20T09:20:53;7.83;;;2.40;;
19816;SDS011;68323;49.394;8.434;2023-12-20T09:23:18;6.27;;;1.73;;
19816;SDS011;68323;49.394;8.434;2023-12-20T09:25:44;4.63;;;1.70;;
19816;SDS011;68323;49.394;8.434;2023-12-20T09:28:12;6.43;;;1.67;;
19816;SDS011;68323;49.394;8.434;2023-12-20T09:30:38;9.13;;;1.93;;
19816;SDS011;68323;49.394;8.434;2023-12-20T09:33:05;7.47;;;1.80;;
19816;SDS011;68323;49.394;8.434;2023-12-20T09:35:32;6.10;;;2.00;;
19816;SDS011;68323;49.394;8.434;2023-12-20T09:38:00;6.67;;;1.80;;
19816;SDS011;68323;49.394;8.434;2023-12-20T09:40:26;6.03;;;1.90;;
19816;SDS011;68323;49.394;8.434;2023-12-20T09:45:29;5.77;;;1.87;;
19816;SDS011;68323;49.394;8.434;2023-12-20T09:47:56;5.53;;;1.90;;
19816;SDS011;68323;49.394;8.434;2023-12-20T09:50:23;7.07;;;2.00;;
19816;SDS011;68323;49.394;8.434;2023-12-20T09:52:54;7.90;;;1.80;;
19816;SDS011;68323;49.394;8.434;2023-12-20T09:55:24;6.87;;;2.00;;
19816;SDS011;68323;49.394;8.434;2023-12-20T09:57:59;8.67;;;1.97;;
19816;SDS011;68323;49.394;8.434;2023-12-20T10:00:25;4.43;;;1.70;;
19816;SDS011;68323;49.394;8.434;2023-12-20T10:02:53;6.53;;;1.90;;
19816;SDS011;68323;49.394;8.434;2023-12-20T10:05:26;5.43;;;1.70;;
19816;SDS011;68323;49.394;8.434;2023-12-20T10:07:52;10.27;;;1.90;;
19816;SDS011;68323;49.394;8.434;2023-12-20T10:10:18;7.67;;;2.00;;
19816;SDS011;68323;49.394;8.434;2023-12-20T10:15:30;6.63;;;1.87;;
19816;SDS011;68323;49.394;8.434;2023-12-20T10:17:57;6.33;;;1.83;;
19816;SDS011;68323;49.394;8.434;2023-12-20T10:20:23;6.93;;;1.60;;
19816;SDS011;68323;49.394;8.434;2023-12-20T10:22:49;10.50;;;2.00;;
19816;SDS011;68323;49.394;8.434;2023-12-20T10:25:14;8.33;;;1.80;;
19816;SDS011;68323;49.394;8.434;2023-12-20T10:27:40;7.60;;;2.33;;
19816;SDS011;68323;49.394;8.434;2023-12-20T10:30:09;9.27;;;2.00;;
19816;SDS011;68323;49.394;8.434;2023-12-20T10:32:35;6.50;;;1.77;;
19816;SDS011;68323;49.394;8.434;2023-12-20T10:35:00;7.97;;;1.90;;
19816;SDS011;68323;49.394;8.434;2023-12-20T10:37:27;9.73;;;2.17;;
19816;SDS011;68323;49.394;8.434;2023-12-20T10:39:53;7.80;;;1.60;;
19816;SDS011;68323;49.394;8.434;2023-12-20T10:42:26;5.63;;;1.83;;
19816;SDS011;68323;49.394;8.434;2023-12-20T10:44:52;8.37;;;1.87;;
19816;SDS011;68323;49.394;8.434;2023-12-20T10:47:19;10.30;;;2.07;;
19816;SDS011;68323;49.394;8.434;2023-12-20T10:49:46;6.70;;;1.60;;
19816;SDS011;68323;49.394;8.434;2023-12-20T10:52:12;6.43;;;1.63;;
19816;SDS011;68323;49.394;8.434;2023-12-20T10:54:41;5.47;;;1.77;;
19816;SDS011;68323;49.394;8.434;2023-12-20T10:57:07;8.23;;;2.00;;
19816;SDS011;68323;49.394;8.434;2023-12-20T10:59:33;5.17;;;1.70;;
19816;SDS011;68323;49.394;8.434;2023-12-20T11:02:05;8.53;;;1.93;;
19816;SDS011;68323;49.394;8.434;2023-12-20T11:04:34;8.60;;;2.10;;
19816;SDS011;68323;49.394;8.434;2023-12-20T11:07:06;7.40;;;1.93;;
19816;SDS011;68323;49.394;8.434;2023-12-20T11:09:43;8.43;;;2.57;;
19816;SDS011;68323;49.394;8.434;2023-12-20T11:12:29;9.30;;;2.67;;
19816;SDS011;68323;49.394;8.434;2023-12-20T11:15:03;9.90;;;3.10;;
19816;SDS011;68323;49.394;8.434;2023-12-20T11:17:31;10.17;;;3.30;;
19816;SDS011;68323;49.394;8.434;2023-12-20T11:22:27;8.63;;;2.80;;
19816;SDS011;68323;49.394;8.434;2023-12-20T11:24:58;13.13;;;3.27;;
19816;SDS011;68323;49.394;8.434;2023-12-20T11:27:28;7.30;;;2.53;;
19816;SDS011;68323;49.394;8.434;2023-12-20T11:29:56;13.97;;;5.63;;
19816;SDS011;68323;49.394;8.434;2023-12-20T11:34:55;10.93;;;3.90;;
19816;SDS011;68323;49.394;8.434;2023-12-20T11:37:21;9.30;;;2.60;;
19816;SDS011;68323;49.394;8.434;2023-12-20T11:39:56;12.30;;;4.97;;
19816;SDS011;68323;49.394;8.434;2023-12-20T11:42:25;19.43;;;7.47;;
19816;SDS011;68323;49.394;8.434;2023-12-20T11:44:50;12.40;;;4.93;;
19816;SDS011;68323;49.394;8.434;2023-12-20T11:47:17;14.60;;;4.40;;
19816;SDS011;68323;49.394;8.434;2023-12-20T11:49:44;10.90;;;4.40;;
19816;SDS011;68323;49.394;8.434;2023-12-20T11:52:12;7.03;;;2.23;;
19816;SDS011;68323;49.394;8.434;2023-12-20T11:54:44;7.60;;;2.23;;
19816;SDS011;68323;49.394;8.434;2023-12-20T11:57:10;8.00;;;2.30;;
19816;SDS011;68323;49.394;8.434;2023-12-20T11:59:36;7.57;;;2.43;;
19816;SDS011;68323;49.394;8.434;2023-12-20T12:02:04;9.47;;;2.23;;
19816;SDS011;68323;49.394;8.434;2023-12-20T12:04:30;6.63;;;2.23;;
19816;SDS011;68323;49.394;8.434;2023-12-20T12:06:56;6.27;;;2.60;;
19816;SDS011;68323;49.394;8.434;2023-12-20T12:09:22;7.50;;;2.57;;
19816;SDS011;68323;49.394;8.434;2023-12-20T12:11:47;7.97;;;2.50;;
19816;SDS011;68323;49.394;8.434;2023-12-20T12:14:13;6.60;;;2.37;;
19816;SDS011;68323;49.394;8.434;2023-12-20T12:16:41;8.47;;;2.70;;
19816;SDS011;68323;49.394;8.434;2023-12-20T12:19:07;7.40;;;2.40;;
19816;SDS011;68323;49.394;8.434;2023-12-20T12:21:47;10.17;;;2.60;;
19816;SDS011;68323;49.394;8.434;2023-12-20T12:24:12;8.37;;;2.60;;
19816;SDS011;68323;49.394;8.434;2023-12-20T12:26:38;9.53;;;2.60;;
19816;SDS011;68323;49.394;8.434;2023-12-20T12:29:06;9.07;;;2.40;;
19816;SDS011;68323;49.394;8.434;2023-12-20T12:31:33;8.27;;;2.40;;
19816;SDS011;68323;49.394;8.434;2023-12-20T12:33:58;9.33;;;2.70;;
19816;SDS011;68323;49.394;8.434;2023-12-20T12:36:24;10.27;;;3.03;;
19816;SDS011;68323;49.394;8.434;2023-12-20T12:38:49;11.93;;;2.90;;
19816;SDS011;68323;49.394;8.434;2023-12-20T12:41:15;10.90;;;3.10;;
19816;SDS011;68323;49.394;8.434;2023-12-20T12:43:41;6.50;;;2.63;;
19816;SDS011;68323;49.394;8.434;2023-12-20T12:46:07;9.83;;;2.97;;
19816;SDS011;68323;49.394;8.434;2023-12-20T12:48:35;13.47;;;2.80;;
19816;SDS011;68323;49.394;8.434;2023-12-20T12:51:01;8.47;;;3.20;;
19816;SDS011;68323;49.394;8.434;2023-12-20T12:53:26;8.13;;;3.30;;
19816;SDS011;68323;49.394;8.434;2023-12-20T12:55:54;8.53;;;3.10;;
19816;SDS011;68323;49.394;8.434;2023-12-20T12:58:20;9.50;;;3.00;;
19816;SDS011;68323;49.394;8.434;2023-12-20T13:00:47;10.93;;;4.20;;
19816;SDS011;68323;49.394;8.434;2023-12-20T13:03:12;11.97;;;4.97;;
19816;SDS011;68323;49.394;8.434;2023-12-20T13:05:38;8.97;;;3.40;;
19816;SDS011;68323;49.394;8.434;2023-12-20T13:08:04;13.00;;;4.60;;
19816;SDS011;68323;49.394;8.434;2023-12-20T13:10:30;11.43;;;3.87;;
19816;SDS011;68323;49.394;8.434;2023-12-20T13:12:56;11.77;;;6.53;;
19816;SDS011;68323;49.394;8.434;2023-12-20T13:15:24;10.17;;;3.90;;
19816;SDS011;68323;49.394;8.434;2023-12-20T13:17:50;11.70;;;4.37;;
19816;SDS011;68323;49.394;8.434;2023-12-20T13:20:15;10.83;;;3.90;;
19816;SDS011;68323;49.394;8.434;2023-12-20T13:22:41;13.10;;;3.63;;
19816;SDS011;68323;49.394;8.434;2023-12-20T13:25:06;17.97;;;4.80;;
19816;SDS011;68323;49.394;8.434;2023-12-20T13:27:32;11.20;;;4.73;;
19816;SDS011;68323;49.394;8.434;2023-12-20T13:29:58;12.43;;;4.17;;
19816;SDS011;68323;49.394;8.434;2023-12-20T13:32:24;9.03;;;3.40;;
19816;SDS011;68323;49.394;8.434;2023-12-20T13:34:49;6.73;;;2.57;;
19816;SDS011;68323;49.394;8.434;2023-12-20T13:37:15;9.23;;;2.50;;
19816;SDS011;68323;49.394;8.434;2023-12-20T13:39:41;19.20;;;6.93;;
19816;SDS011;68323;49.394;8.434;2023-12-20T13:42:07;16.77;;;6.43;;
19816;SDS011;68323;49.394;8.434;2023-12-20T13:44:32;18.60;;;6.90;;
19816;SDS011;68323;49.394;8.434;2023-12-20T13:47:01;11.63;;;5.00;;
19816;SDS011;68323;49.394;8.434;2023-12-20T13:49:27;13.13;;;4.67;;
19816;SDS011;68323;49.394;8.434;2023-12-20T13:51:53;9.53;;;2.63;;
19816;SDS011;68323;49.394;8.434;2023-12-20T13:54:20;7.03;;;2.27;;
19816;SDS011;68323;49.394;8.434;2023-12-20T13:56:46;11.20;;;2.73;;
19816;SDS011;68323;49.394;8.434;2023-12-20T13:59:15;8.73;;;2.70;;
19816;SDS011;68323;49.394;8.434;2023-12-20T14:01:41;10.20;;;2.53;;
19816;SDS011;68323;49.394;8.434;2023-12-20T14:04:06;11.43;;;3.00;;
19816;SDS011;68323;49.394;8.434;2023-12-20T14:06:32;7.03;;;2.57;;
19816;SDS011;68323;49.394;8.434;2023-12-20T14:09:01;7.90;;;2.90;;
19816;SDS011;68323;49.394;8.434;2023-12-20T14:11:28;6.63;;;2.40;;
19816;SDS011;68323;49.394;8.434;2023-12-20T14:13:54;8.43;;;2.37;;
19816;SDS011;68323;49.394;8.434;2023-12-20T14:16:25;9.70;;;2.60;;
19816;SDS011;68323;49.394;8.434;2023-12-20T14:18:51;10.97;;;2.63;;
19816;SDS011;68323;49.394;8.434;2023-12-20T14:21:22;7.10;;;2.70;;
19816;SDS011;68323;49.394;8.434;2023-12-20T14:23:49;8.00;;;2.83;;
19816;SDS011;68323;49.394;8.434;2023-12-20T14:26:16;10.63;;;3.10;;
19816;SDS011;68323;49.394;8.434;2023-12-20T14:28:42;9.17;;;2.60;;
19816;SDS011;68323;49.394;8.434;2023-12-20T14:31:08;8.80;;;2.57;;
19816;SDS011;68323;49.394;8.434;2023-12-20T14:33:35;7.90;;;2.23;;
19816;SDS011;68323;49.394;8.434;2023-12-20T14:36:03;9.87;;;2.70;;
19816;SDS011;68323;49.394;8.434;2023-12-20T14:38:30;6.97;;;2.20;;
19816;SDS011;68323;49.394;8.434;2023-12-20T14:40:56;9.70;;;2.80;;
19816;SDS011;68323;49.394;8.434;2023-12-20T14:43:24;8.87;;;2.10;;
19816;SDS011;68323;49.394;8.434;2023-12-20T14:45:51;9.80;;;2.97;;
19816;SDS011;68323;49.394;8.434;2023-12-20T14:48:17;6.83;;;2.50;;